14:39
Airports
Links
Donate
Help keep this website running!
PayPal
Bitcoin
METAR
RJAA 181430Z 36005KT 9999 FEW030 00/M03 Q1020 NOSIG RMK 1CU030 A3014
Current Weather Conditions at RJAA
VFR 14:30:00 18-12-17
Altimeter:30.12 hg
Temp:0.0°c 32°f
Dew point:-3.0°c 27°f
Wind:5 knots, 5.8 mph, 3 m/s, from 360°
Visibility:6.21 statute miles
3000(FEW) A few
No significant weather changes expected within 2 hours.
Past METAR reports
VFR 14:00:00 18-12-17
Altimeter:30.15 hg
Temp:1.0°c 34°f
Dew point:-2.0°c 28°f
Wind:3 knots, 3.5 mph, 2 m/s, from 360°
Visibility:6.21 statute miles
3000(FEW) A few
No significant weather changes expected within 2 hours.
RJAA 181400Z 36003KT 9999 FEW030 01/M02 Q1021 NOSIG RMK 1CU030 A3015
VFR 13:30:00 18-12-17
Altimeter:30.15 hg
Temp:-1.0°c 30°f
Dew point:-3.0°c 27°f
Wind:1 knots, 1.2 mph, 1 m/s,
Variable direction
Visibility:6.21 statute miles
3000(FEW) A few
No significant weather changes expected within 2 hours.
RJAA 181330Z VRB01KT 9999 FEW030 M01/M03 Q1021 NOSIG RMK 1CU030 A3016
VFR 13:00:00 18-12-17
Altimeter:30.15 hg
Temp:-1.0°c 30°f
Dew point:-3.0°c 27°f
Wind:2 knots, 2.3 mph, 1 m/s, from 340°
Visibility:6.21 statute miles
3000(FEW) A few
No significant weather changes expected within 2 hours.
RJAA 181300Z 34002KT 9999 FEW030 M01/M03 Q1021 NOSIG RMK 1CU030 A3016
VFR 12:30:00 18-12-17
Altimeter:30.15 hg
Temp:-1.0°c 30°f
Dew point:-3.0°c 27°f
Wind:0 knots, 0 mph, 0 m/s,
Variable direction
Visibility:6.21 statute miles
3000(FEW) A few
No significant weather changes expected within 2 hours.
RJAA 181230Z 00000KT 9999 FEW030 SCT/// M01/M03 Q1021 NOSIG
VFR 12:00:00 18-12-17
Altimeter:30.15 hg
Temp:1.0°c 34°f
Dew point:-1.0°c 30°f
Wind:2 knots, 2.3 mph, 1 m/s,
Variable direction
Visibility:6.21 statute miles
3000(FEW) A few
No significant weather changes expected within 2 hours.
RJAA 181200Z VRB02KT 9999 FEW030 SCT/// 01/M01 Q1021 NOSIG RMK 1CU030 A3016
VFR 11:30:00 18-12-17
Altimeter:30.15 hg
Temp:0.0°c 32°f
Dew point:-2.0°c 28°f
Wind:2 knots, 2.3 mph, 1 m/s, from 160°
Visibility:6.21 statute miles
3000(FEW) A few
No significant weather changes expected within 2 hours.
RJAA 181130Z 16002KT 9999 FEW030 SCT/// M00/M02 Q1021 NOSIG
TAF
TAF RJAA 181105Z 1812/1918 33004KT 9999 FEW020 BECMG 1900/1903 22009KT BECMG 1909/1912 31010KT
Forecast at RJAA
12:00 18-12-17 to 00:00 19-12-17
Wind:4 Knots from 330°
Visibility:6.21 statute miles
2000FEW A few
BECMG 00:00 19-12-17 to 09:00 19-12-17
Wind:9 Knots from 220°
Visibility:6.21 statute miles
2000FEW A few
BECMG 09:00 19-12-17 to 18:00 19-12-17
Wind:10 Knots from 310°
Visibility:6.21 statute miles
2000FEW A few